sensor_id;sensor_type;location;lat;lon;timestamp;temperature;humidity
22321;DHT22;11328;53.928;18.522;2023-04-03T00:00:56;3.60;99.90
22321;DHT22;11328;53.928;18.522;2023-04-03T00:03:23;3.50;99.90
22321;DHT22;11328;53.928;18.522;2023-04-03T00:05:50;3.50;99.90
22321;DHT22;11328;53.928;18.522;2023-04-03T00:08:17;3.60;99.90
22321;DHT22;11328;53.928;18.522;2023-04-03T00:10:44;3.50;99.90
22321;DHT22;11328;53.928;18.522;2023-04-03T00:13:11;3.60;99.90
22321;DHT22;11328;53.928;18.522;2023-04-03T00:15:39;3.60;99.90
22321;DHT22;11328;53.928;18.522;2023-04-03T00:18:06;3.60;99.90
22321;DHT22;11328;53.928;18.522;2023-04-03T00:20:34;3.60;99.90
22321;DHT22;11328;53.928;18.522;2023-04-03T00:23:01;3.60;99.90
22321;DHT22;11328;53.928;18.522;2023-04-03T00:25:29;3.70;99.90
22321;DHT22;11328;53.928;18.522;2023-04-03T00:27:55;3.70;99.90
22321;DHT22;11328;53.928;18.522;2023-04-03T00:30:23;3.70;99.90
22321;DHT22;11328;53.928;18.522;2023-04-03T00:32:53;3.60;99.90
22321;DHT22;11328;53.928;18.522;2023-04-03T00:35:21;3.60;99.90
22321;DHT22;11328;53.928;18.522;2023-04-03T00:37:52;3.50;99.90
22321;DHT22;11328;53.928;18.522;2023-04-03T00:40:23;3.50;99.90
22321;DHT22;11328;53.928;18.522;2023-04-03T00:42:56;3.40;99.90
22321;DHT22;11328;53.928;18.522;2023-04-03T00:48:04;3.50;99.90
22321;DHT22;11328;53.928;18.522;2023-04-03T00:50:39;3.50;99.90
22321;DHT22;11328;53.928;18.522;2023-04-03T00:53:14;3.60;99.90
22321;DHT22;11328;53.928;18.522;2023-04-03T00:55:49;3.60;99.90
22321;DHT22;11328;53.928;18.522;2023-04-03T00:58:19;3.50;99.90
22321;DHT22;11328;53.928;18.522;2023-04-03T01:00:54;3.40;99.90
22321;DHT22;11328;53.928;18.522;2023-04-03T01:03:25;3.50;99.90
22321;DHT22;11328;53.928;18.522;2023-04-03T01:05:52;3.40;99.90
22321;DHT22;11328;53.928;18.522;2023-04-03T01:08:19;3.40;99.90
22321;DHT22;11328;53.928;18.522;2023-04-03T01:10:46;3.40;99.90
22321;DHT22;11328;53.928;18.522;2023-04-03T01:13:30;3.30;99.90
22321;DHT22;11328;53.928;18.522;2023-04-03T01:16:04;3.30;99.90
22321;DHT22;11328;53.928;18.522;2023-04-03T01:18:32;3.30;99.90
22321;DHT22;11328;53.928;18.522;2023-04-03T01:26:36;3.30;99.90
22321;DHT22;11328;53.928;18.522;2023-04-03T01:29:04;3.30;99.90
22321;DHT22;11328;53.928;18.522;2023-04-03T01:31:31;3.30;99.90
22321;DHT22;11328;53.928;18.522;2023-04-03T01:34:15;3.10;99.90
22321;DHT22;11328;53.928;18.522;2023-04-03T01:36:42;3.10;99.90
22321;DHT22;11328;53.928;18.522;2023-04-03T01:39:09;3.20;99.90
22321;DHT22;11328;53.928;18.522;2023-04-03T01:41:36;3.10;99.90
22321;DHT22;11328;53.928;18.522;2023-04-03T01:44:03;3.20;99.90
22321;DHT22;11328;53.928;18.522;2023-04-03T01:46:31;3.00;99.90
22321;DHT22;11328;53.928;18.522;2023-04-03T01:48:58;3.00;99.90
22321;DHT22;11328;53.928;18.522;2023-04-03T01:51:25;3.00;99.90
22321;DHT22;11328;53.928;18.522;2023-04-03T01:53:52;3.00;99.90
22321;DHT22;11328;53.928;18.522;2023-04-03T01:56:19;3.00;99.90
22321;DHT22;11328;53.928;18.522;2023-04-03T01:58:46;3.10;99.90
22321;DHT22;11328;53.928;18.522;2023-04-03T02:01:13;3.00;99.90
22321;DHT22;11328;53.928;18.522;2023-04-03T02:03:41;3.00;99.90
22321;DHT22;11328;53.928;18.522;2023-04-03T02:06:08;3.00;99.90
22321;DHT22;11328;53.928;18.522;2023-04-03T02:08:38;2.90;99.90
22321;DHT22;11328;53.928;18.522;2023-04-03T02:11:05;2.90;99.90
22321;DHT22;11328;53.928;18.522;2023-04-03T02:13:32;2.70;99.90
22321;DHT22;11328;53.928;18.522;2023-04-03T02:15:58;2.80;99.90
22321;DHT22;11328;53.928;18.522;2023-04-03T02:18:25;2.80;99.90
22321;DHT22;11328;53.928;18.522;2023-04-03T02:20:52;2.80;99.90
22321;DHT22;11328;53.928;18.522;2023-04-03T02:23:19;2.80;99.90
22321;DHT22;11328;53.928;18.522;2023-04-03T02:25:46;2.80;99.90
22321;DHT22;11328;53.928;18.522;2023-04-03T02:28:13;2.70;99.90
22321;DHT22;11328;53.928;18.522;2023-04-03T02:30:40;2.80;99.90
22321;DHT22;11328;53.928;18.522;2023-04-03T02:33:07;2.90;99.90
22321;DHT22;11328;53.928;18.522;2023-04-03T02:35:34;2.80;99.90
22321;DHT22;11328;53.928;18.522;2023-04-03T02:38:01;2.80;99.90
22321;DHT22;11328;53.928;18.522;2023-04-03T02:40:28;2.80;99.90
22321;DHT22;11328;53.928;18.522;2023-04-03T02:42:54;2.80;99.90
22321;DHT22;11328;53.928;18.522;2023-04-03T02:45:21;2.80;99.90
22321;DHT22;11328;53.928;18.522;2023-04-03T02:47:48;2.80;99.90
22321;DHT22;11328;53.928;18.522;2023-04-03T02:50:15;2.80;99.90
22321;DHT22;11328;53.928;18.522;2023-04-03T02:52:42;2.80;99.90
22321;DHT22;11328;53.928;18.522;2023-04-03T02:55:13;2.70;99.90
22321;DHT22;11328;53.928;18.522;2023-04-03T02:57:42;2.70;99.90
22321;DHT22;11328;53.928;18.522;2023-04-03T03:00:09;2.60;99.90
22321;DHT22;11328;53.928;18.522;2023-04-03T03:02:36;2.60;99.90
22321;DHT22;11328;53.928;18.522;2023-04-03T03:05:03;2.50;99.90
22321;DHT22;11328;53.928;18.522;2023-04-03T03:07:34;2.50;99.90
22321;DHT22;11328;53.928;18.522;2023-04-03T03:10:01;2.50;99.90
22321;DHT22;11328;53.928;18.522;2023-04-03T03:12:28;2.50;99.90
22321;DHT22;11328;53.928;18.522;2023-04-03T03:14:57;2.40;99.90
22321;DHT22;11328;53.928;18.522;2023-04-03T03:17:23;2.40;99.90
22321;DHT22;11328;53.928;18.522;2023-04-03T03:19:50;2.40;99.90
22321;DHT22;11328;53.928;18.522;2023-04-03T03:22:17;2.40;99.90
22321;DHT22;11328;53.928;18.522;2023-04-03T03:24:46;2.40;99.90
22321;DHT22;11328;53.928;18.522;2023-04-03T03:27:13;2.30;99.90
22321;DHT22;11328;53.928;18.522;2023-04-03T03:29:40;2.40;99.90
22321;DHT22;11328;53.928;18.522;2023-04-03T03:32:07;2.40;99.90
22321;DHT22;11328;53.928;18.522;2023-04-03T03:34:34;2.40;99.90
22321;DHT22;11328;53.928;18.522;2023-04-03T03:37:01;2.40;99.90
22321;DHT22;11328;53.928;18.522;2023-04-03T03:39:28;2.40;99.90
22321;DHT22;11328;53.928;18.522;2023-04-03T03:41:55;2.50;99.90
22321;DHT22;11328;53.928;18.522;2023-04-03T03:44:22;2.40;99.90
22321;DHT22;11328;53.928;18.522;2023-04-03T03:46:49;2.40;99.90
22321;DHT22;11328;53.928;18.522;2023-04-03T03:49:16;2.30;99.90
22321;DHT22;11328;53.928;18.522;2023-04-03T03:51:43;2.20;99.90
22321;DHT22;11328;53.928;18.522;2023-04-03T03:54:10;2.20;99.90
22321;DHT22;11328;53.928;18.522;2023-04-03T03:56:37;2.20;99.90
22321;DHT22;11328;53.928;18.522;2023-04-03T03:59:04;2.30;99.90
22321;DHT22;11328;53.928;18.522;2023-04-03T04:01:31;2.30;99.90
22321;DHT22;11328;53.928;18.522;2023-04-03T04:03:59;2.30;99.90
22321;DHT22;11328;53.928;18.522;2023-04-03T04:06:26;2.20;99.90
22321;DHT22;11328;53.928;18.522;2023-04-03T04:08:52;2.20;99.90
22321;DHT22;11328;53.928;18.522;2023-04-03T04:11:20;2.30;99.90
22321;DHT22;11328;53.928;18.522;2023-04-03T04:13:48;2.20;99.90
22321;DHT22;11328;53.928;18.522;2023-04-03T04:16:15;2.10;99.90
22321;DHT22;11328;53.928;18.522;2023-04-03T04:18:42;2.20;99.90
22321;DHT22;11328;53.928;18.522;2023-04-03T04:21:09;2.30;99.90
22321;DHT22;11328;53.928;18.522;2023-04-03T04:23:36;2.40;99.90
22321;DHT22;11328;53.928;18.522;2023-04-03T04:26:02;2.40;99.90
22321;DHT22;11328;53.928;18.522;2023-04-03T04:28:29;2.30;99.90
22321;DHT22;11328;53.928;18.522;2023-04-03T04:30:56;2.30;99.90
22321;DHT22;11328;53.928;18.522;2023-04-03T04:33:23;2.30;99.90
22321;DHT22;11328;53.928;18.522;2023-04-03T04:35:50;2.40;99.90
22321;DHT22;11328;53.928;18.522;2023-04-03T04:38:18;2.50;99.90
22321;DHT22;11328;53.928;18.522;2023-04-03T04:40:45;2.40;99.90
22321;DHT22;11328;53.928;18.522;2023-04-03T04:43:14;2.50;99.90
22321;DHT22;11328;53.928;18.522;2023-04-03T04:45:41;2.60;99.90
22321;DHT22;11328;53.928;18.522;2023-04-03T04:48:08;2.50;99.90
22321;DHT22;11328;53.928;18.522;2023-04-03T04:50:36;2.60;99.90
22321;DHT22;11328;53.928;18.522;2023-04-03T04:53:02;2.60;99.90
22321;DHT22;11328;53.928;18.522;2023-04-03T04:55:30;2.60;99.90
22321;DHT22;11328;53.928;18.522;2023-04-03T04:57:57;2.70;99.90
22321;DHT22;11328;53.928;18.522;2023-04-03T05:00:24;2.80;99.90
22321;DHT22;11328;53.928;18.522;2023-04-03T05:02:51;2.80;99.90
22321;DHT22;11328;53.928;18.522;2023-04-03T05:05:18;2.80;99.90
22321;DHT22;11328;53.928;18.522;2023-04-03T05:07:45;2.80;99.90
22321;DHT22;11328;53.928;18.522;2023-04-03T05:10:12;2.90;99.90
22321;DHT22;11328;53.928;18.522;2023-04-03T05:12:39;2.90;99.90
22321;DHT22;11328;53.928;18.522;2023-04-03T05:15:06;2.90;99.90
22321;DHT22;11328;53.928;18.522;2023-04-03T05:17:33;3.00;99.90
22321;DHT22;11328;53.928;18.522;2023-04-03T05:20:01;3.00;99.90
22321;DHT22;11328;53.928;18.522;2023-04-03T05:22:29;3.00;99.90
22321;DHT22;11328;53.928;18.522;2023-04-03T05:24:55;3.00;99.90
22321;DHT22;11328;53.928;18.522;2023-04-03T05:27:23;3.10;99.90
22321;DHT22;11328;53.928;18.522;2023-04-03T05:29:55;3.10;99.90
22321;DHT22;11328;53.928;18.522;2023-04-03T05:32:23;3.20;99.90
22321;DHT22;11328;53.928;18.522;2023-04-03T05:34:51;3.40;99.90
22321;DHT22;11328;53.928;18.522;2023-04-03T05:37:19;3.30;99.90
22321;DHT22;11328;53.928;18.522;2023-04-03T05:39:46;3.50;99.90
22321;DHT22;11328;53.928;18.522;2023-04-03T05:42:13;3.60;99.90
22321;DHT22;11328;53.928;18.522;2023-04-03T05:44:41;3.60;99.90
22321;DHT22;11328;53.928;18.522;2023-04-03T05:47:08;3.80;99.90
22321;DHT22;11328;53.928;18.522;2023-04-03T05:49:35;4.00;99.90
22321;DHT22;11328;53.928;18.522;2023-04-03T05:52:02;4.10;99.90
22321;DHT22;11328;53.928;18.522;2023-04-03T05:54:30;4.20;99.90
22321;DHT22;11328;53.928;18.522;2023-04-03T05:56:57;4.20;99.90
22321;DHT22;11328;53.928;18.522;2023-04-03T05:59:24;4.40;99.90
22321;DHT22;11328;53.928;18.522;2023-04-03T06:01:51;4.40;99.90
22321;DHT22;11328;53.928;18.522;2023-04-03T06:04:18;4.50;99.90
22321;DHT22;11328;53.928;18.522;2023-04-03T06:06:53;4.50;99.90
22321;DHT22;11328;53.928;18.522;2023-04-03T06:09:23;4.50;99.90
22321;DHT22;11328;53.928;18.522;2023-04-03T06:11:53;4.50;99.90
22321;DHT22;11328;53.928;18.522;2023-04-03T06:14:20;4.30;99.90
22321;DHT22;11328;53.928;18.522;2023-04-03T06:16:47;4.30;99.90
22321;DHT22;11328;53.928;18.522;2023-04-03T06:19:15;4.20;99.90
22321;DHT22;11328;53.928;18.522;2023-04-03T06:21:42;4.20;99.90
22321;DHT22;11328;53.928;18.522;2023-04-03T06:24:10;4.10;99.90
22321;DHT22;11328;53.928;18.522;2023-04-03T06:26:40;4.00;99.90
22321;DHT22;11328;53.928;18.522;2023-04-03T06:29:07;4.10;99.90
22321;DHT22;11328;53.928;18.522;2023-04-03T06:31:35;4.10;99.90
22321;DHT22;11328;53.928;18.522;2023-04-03T06:34:03;4.10;99.90
22321;DHT22;11328;53.928;18.522;2023-04-03T06:36:35;4.10;99.90
22321;DHT22;11328;53.928;18.522;2023-04-03T06:39:02;4.40;99.90
22321;DHT22;11328;53.928;18.522;2023-04-03T06:41:30;4.70;99.90
22321;DHT22;11328;53.928;18.522;2023-04-03T06:43:57;4.90;99.90
22321;DHT22;11328;53.928;18.522;2023-04-03T06:46:26;5.20;99.90
22321;DHT22;11328;53.928;18.522;2023-04-03T06:48:53;5.30;99.90
22321;DHT22;11328;53.928;18.522;2023-04-03T06:51:28;5.30;99.90
22321;DHT22;11328;53.928;18.522;2023-04-03T06:53:57;5.60;99.90
22321;DHT22;11328;53.928;18.522;2023-04-03T06:56:26;5.50;99.90
22321;DHT22;11328;53.928;18.522;2023-04-03T06:58:54;5.70;99.90
22321;DHT22;11328;53.928;18.522;2023-04-03T07:01:24;5.90;99.90
22321;DHT22;11328;53.928;18.522;2023-04-03T07:03:52;6.20;99.90
22321;DHT22;11328;53.928;18.522;2023-04-03T07:06:20;6.30;99.90
22321;DHT22;11328;53.928;18.522;2023-04-03T07:08:48;6.20;99.90
22321;DHT22;11328;53.928;18.522;2023-04-03T07:11:16;6.20;99.90
22321;DHT22;11328;53.928;18.522;2023-04-03T07:13:43;6.30;99.70
22321;DHT22;11328;53.928;18.522;2023-04-03T07:16:11;6.50;99.40
22321;DHT22;11328;53.928;18.522;2023-04-03T07:18:38;6.50;98.50
22321;DHT22;11328;53.928;18.522;2023-04-03T07:21:05;6.50;98.40
22321;DHT22;11328;53.928;18.522;2023-04-03T07:23:32;6.40;97.70
22321;DHT22;11328;53.928;18.522;2023-04-03T07:26:00;6.30;97.70
22321;DHT22;11328;53.928;18.522;2023-04-03T07:28:27;6.30;96.60
22321;DHT22;11328;53.928;18.522;2023-04-03T07:31:04;6.50;96.00
22321;DHT22;11328;53.928;18.522;2023-04-03T07:33:36;6.80;96.20
22321;DHT22;11328;53.928;18.522;2023-04-03T07:36:05;7.00;96.30
22321;DHT22;11328;53.928;18.522;2023-04-03T07:38:37;7.00;96.20
22321;DHT22;11328;53.928;18.522;2023-04-03T07:41:04;7.00;95.10
22321;DHT22;11328;53.928;18.522;2023-04-03T07:43:32;6.70;94.70
22321;DHT22;11328;53.928;18.522;2023-04-03T07:46:00;6.30;95.20
22321;DHT22;11328;53.928;18.522;2023-04-03T07:48:28;6.00;94.70
22321;DHT22;11328;53.928;18.522;2023-04-03T07:50:59;5.90;94.90
22321;DHT22;11328;53.928;18.522;2023-04-03T07:53:28;5.70;95.30
22321;DHT22;11328;53.928;18.522;2023-04-03T07:55:57;5.50;95.40
22321;DHT22;11328;53.928;18.522;2023-04-03T07:58:25;5.40;95.40
22321;DHT22;11328;53.928;18.522;2023-04-03T08:00:52;5.40;96.10
22321;DHT22;11328;53.928;18.522;2023-04-03T08:03:19;5.50;96.90
22321;DHT22;11328;53.928;18.522;2023-04-03T08:05:47;5.60;96.40
22321;DHT22;11328;53.928;18.522;2023-04-03T08:08:19;5.90;96.90
22321;DHT22;11328;53.928;18.522;2023-04-03T08:10:49;6.00;97.10
22321;DHT22;11328;53.928;18.522;2023-04-03T08:13:18;5.90;97.20
22321;DHT22;11328;53.928;18.522;2023-04-03T08:15:46;6.00;96.70
22321;DHT22;11328;53.928;18.522;2023-04-03T08:18:14;5.70;95.90
22321;DHT22;11328;53.928;18.522;2023-04-03T08:20:42;5.50;94.90
22321;DHT22;11328;53.928;18.522;2023-04-03T08:23:09;5.50;96.00
22321;DHT22;11328;53.928;18.522;2023-04-03T08:25:41;5.40;94.70
22321;DHT22;11328;53.928;18.522;2023-04-03T08:28:09;5.30;95.50
22321;DHT22;11328;53.928;18.522;2023-04-03T08:30:41;5.30;95.10
22321;DHT22;11328;53.928;18.522;2023-04-03T08:33:09;5.20;94.50
22321;DHT22;11328;53.928;18.522;2023-04-03T08:35:40;5.40;95.40
22321;DHT22;11328;53.928;18.522;2023-04-03T08:38:09;5.40;96.00
22321;DHT22;11328;53.928;18.522;2023-04-03T08:40:36;5.50;97.00
22321;DHT22;11328;53.928;18.522;2023-04-03T08:43:34;5.40;95.90
22321;DHT22;11328;53.928;18.522;2023-04-03T08:46:14;5.30;95.20
22321;DHT22;11328;53.928;18.522;2023-04-03T08:48:43;5.20;95.60
22321;DHT22;11328;53.928;18.522;2023-04-03T08:51:20;5.20;95.50
22321;DHT22;11328;53.928;18.522;2023-04-03T08:54:03;5.00;95.80
22321;DHT22;11328;53.928;18.522;2023-04-03T08:56:34;5.10;95.40
22321;DHT22;11328;53.928;18.522;2023-04-03T08:59:11;5.00;95.80
22321;DHT22;11328;53.928;18.522;2023-04-03T09:01:43;5.10;95.10
22321;DHT22;11328;53.928;18.522;2023-04-03T09:04:16;5.10;95.30
22321;DHT22;11328;53.928;18.522;2023-04-03T09:06:48;5.30;96.30
22321;DHT22;11328;53.928;18.522;2023-04-03T09:09:39;5.30;95.50
22321;DHT22;11328;53.928;18.522;2023-04-03T09:12:26;5.60;96.40
22321;DHT22;11328;53.928;18.522;2023-04-03T09:17:59;5.90;95.20
22321;DHT22;11328;53.928;18.522;2023-04-03T09:23:58;5.80;94.40
22321;DHT22;11328;53.928;18.522;2023-04-03T09:26:48;5.70;94.50
22321;DHT22;11328;53.928;18.522;2023-04-03T09:29:22;5.80;95.20
22321;DHT22;11328;53.928;18.522;2023-04-03T09:31:56;5.60;95.10
22321;DHT22;11328;53.928;18.522;2023-04-03T09:34:32;5.60;95.50
22321;DHT22;11328;53.928;18.522;2023-04-03T09:37:04;5.70;95.30
22321;DHT22;11328;53.928;18.522;2023-04-03T09:39:50;5.60;95.90
22321;DHT22;11328;53.928;18.522;2023-04-03T09:42:24;5.50;95.60
22321;DHT22;11328;53.928;18.522;2023-04-03T09:45:21;5.50;95.40
22321;DHT22;11328;53.928;18.522;2023-04-03T09:48:15;5.50;94.70
22321;DHT22;11328;53.928;18.522;2023-04-03T09:53:42;5.70;95.30
22321;DHT22;11328;53.928;18.522;2023-04-03T10:01:27;6.40;94.90
22321;DHT22;11328;53.928;18.522;2023-04-03T10:04:18;6.10;95.40
22321;DHT22;11328;53.928;18.522;2023-04-03T10:06:48;6.10;96.20
22321;DHT22;11328;53.928;18.522;2023-04-03T10:09:29;6.20;96.60
22321;DHT22;11328;53.928;18.522;2023-04-03T10:12:03;6.40;95.80
22321;DHT22;11328;53.928;18.522;2023-04-03T10:14:59;6.40;95.40
22321;DHT22;11328;53.928;18.522;2023-04-03T10:20:33;6.10;94.60
22321;DHT22;11328;53.928;18.522;2023-04-03T10:29:16;6.20;95.10
22321;DHT22;11328;53.928;18.522;2023-04-03T10:34:47;6.20;96.60
22321;DHT22;11328;53.928;18.522;2023-04-03T10:37:57;6.30;96.10
22321;DHT22;11328;53.928;18.522;2023-04-03T10:40:41;6.20;96.90
22321;DHT22;11328;53.928;18.522;2023-04-03T10:47:37;6.00;97.00
22321;DHT22;11328;53.928;18.522;2023-04-03T10:50:24;5.80;97.40
22321;DHT22;11328;53.928;18.522;2023-04-03T10:53:34;6.00;97.80
22321;DHT22;11328;53.928;18.522;2023-04-03T10:59:48;6.30;96.50
22321;DHT22;11328;53.928;18.522;2023-04-03T11:02:31;6.20;97.20
22321;DHT22;11328;53.928;18.522;2023-04-03T11:05:52;6.10;98.00
22321;DHT22;11328;53.928;18.522;2023-04-03T11:11:11;5.90;98.20
22321;DHT22;11328;53.928;18.522;2023-04-03T11:13:49;6.00;98.60
22321;DHT22;11328;53.928;18.522;2023-04-03T11:16:24;5.90;99.10
22321;DHT22;11328;53.928;18.522;2023-04-03T11:21:34;6.30;99.70
22321;DHT22;11328;53.928;18.522;2023-04-03T11:24:17;6.20;99.40
22321;DHT22;11328;53.928;18.522;2023-04-03T11:26:55;6.10;98.70
22321;DHT22;11328;53.928;18.522;2023-04-03T11:29:30;6.00;99.00
22321;DHT22;11328;53.928;18.522;2023-04-03T11:35:11;5.70;99.20
22321;DHT22;11328;53.928;18.522;2023-04-03T11:37:47;5.60;99.90
22321;DHT22;11328;53.928;18.522;2023-04-03T11:51:00;5.90;99.90
22321;DHT22;11328;53.928;18.522;2023-04-03T11:56:03;5.90;99.90
22321;DHT22;11328;53.928;18.522;2023-04-03T11:58:33;6.20;99.90
22321;DHT22;11328;53.928;18.522;2023-04-03T12:01:01;6.30;99.90
22321;DHT22;11328;53.928;18.522;2023-04-03T12:03:34;6.10;99.50
22321;DHT22;11328;53.928;18.522;2023-04-03T12:09:04;6.20;99.10
22321;DHT22;11328;53.928;18.522;2023-04-03T12:12:27;6.10;98.90
22321;DHT22;11328;53.928;18.522;2023-04-03T12:15:24;6.20;99.10
22321;DHT22;11328;53.928;18.522;2023-04-03T12:32:51;5.90;97.80
22321;DHT22;11328;53.928;18.522;2023-04-03T12:39:41;5.80;98.00
22321;DHT22;11328;53.928;18.522;2023-04-03T12:41:53;5.90;97.30
22321;DHT22;11328;53.928;18.522;2023-04-03T12:44:43;5.80;97.30
22321;DHT22;11328;53.928;18.522;2023-04-03T12:47:34;5.80;97.30
22321;DHT22;11328;53.928;18.522;2023-04-03T12:50:35;5.80;97.90
22321;DHT22;11328;53.928;18.522;2023-04-03T12:53:06;6.00;97.70
22321;DHT22;11328;53.928;18.522;2023-04-03T12:55:54;6.00;97.50
22321;DHT22;11328;53.928;18.522;2023-04-03T12:58:27;6.00;98.00
22321;DHT22;11328;53.928;18.522;2023-04-03T13:01:04;6.00;97.60
22321;DHT22;11328;53.928;18.522;2023-04-03T13:03:40;6.10;98.40
22321;DHT22;11328;53.928;18.522;2023-04-03T13:06:17;6.00;97.80
22321;DHT22;11328;53.928;18.522;2023-04-03T13:08:55;6.00;97.80
22321;DHT22;11328;53.928;18.522;2023-04-03T13:11:41;6.00;99.50
22321;DHT22;11328;53.928;18.522;2023-04-03T13:14:21;5.70;97.60
22321;DHT22;11328;53.928;18.522;2023-04-03T13:17:03;5.60;97.30
22321;DHT22;11328;53.928;18.522;2023-04-03T13:19:42;5.70;97.00
22321;DHT22;11328;53.928;18.522;2023-04-03T13:25:07;6.10;97.10
22321;DHT22;11328;53.928;18.522;2023-04-03T13:27:38;6.00;96.70
22321;DHT22;11328;53.928;18.522;2023-04-03T13:30:28;6.10;97.00
22321;DHT22;11328;53.928;18.522;2023-04-03T13:32:59;6.00;96.80
22321;DHT22;11328;53.928;18.522;2023-04-03T13:35:37;5.90;95.20
22321;DHT22;11328;53.928;18.522;2023-04-03T13:40:51;5.50;95.20
22321;DHT22;11328;53.928;18.522;2023-04-03T13:43:41;5.70;95.30
22321;DHT22;11328;53.928;18.522;2023-04-03T13:53:45;5.90;96.10
22321;DHT22;11328;53.928;18.522;2023-04-03T13:56:33;5.90;94.50
22321;DHT22;11328;53.928;18.522;2023-04-03T13:59:30;5.70;93.50
22321;DHT22;11328;53.928;18.522;2023-04-03T14:07:13;5.70;95.60
22321;DHT22;11328;53.928;18.522;2023-04-03T14:09:42;5.80;95.70
22321;DHT22;11328;53.928;18.522;2023-04-03T14:12:31;6.00;95.20
22321;DHT22;11328;53.928;18.522;2023-04-03T14:15:03;6.00;95.30
22321;DHT22;11328;53.928;18.522;2023-04-03T14:17:34;6.10;94.70
22321;DHT22;11328;53.928;18.522;2023-04-03T14:20:01;6.10;95.20
22321;DHT22;11328;53.928;18.522;2023-04-03T14:22:31;6.00;96.50
22321;DHT22;11328;53.928;18.522;2023-04-03T14:25:01;5.90;99.60
22321;DHT22;11328;53.928;18.522;2023-04-03T14:27:49;5.60;99.90
22321;DHT22;11328;53.928;18.522;2023-04-03T14:30:35;5.20;99.90
22321;DHT22;11328;53.928;18.522;2023-04-03T14:33:04;5.20;99.90
22321;DHT22;11328;53.928;18.522;2023-04-03T14:35:32;5.20;99.90
22321;DHT22;11328;53.928;18.522;2023-04-03T14:37:59;5.20;99.90
22321;DHT22;11328;53.928;18.522;2023-04-03T14:40:27;5.20;99.90
22321;DHT22;11328;53.928;18.522;2023-04-03T14:42:54;5.30;99.90
22321;DHT22;11328;53.928;18.522;2023-04-03T14:45:23;5.40;99.90
22321;DHT22;11328;53.928;18.522;2023-04-03T14:47:53;5.50;99.90
22321;DHT22;11328;53.928;18.522;2023-04-03T14:50:24;5.70;99.90
22321;DHT22;11328;53.928;18.522;2023-04-03T14:52:56;5.70;99.90
22321;DHT22;11328;53.928;18.522;2023-04-03T14:55:25;5.70;99.60
22321;DHT22;11328;53.928;18.522;2023-04-03T14:57:53;5.70;98.50
22321;DHT22;11328;53.928;18.522;2023-04-03T15:00:21;5.50;97.70
22321;DHT22;11328;53.928;18.522;2023-04-03T15:02:49;5.50;96.80
22321;DHT22;11328;53.928;18.522;2023-04-03T15:05:17;5.50;96.50
22321;DHT22;11328;53.928;18.522;2023-04-03T15:07:52;5.50;97.00
22321;DHT22;11328;53.928;18.522;2023-04-03T15:10:26;5.50;98.10
22321;DHT22;11328;53.928;18.522;2023-04-03T15:12:55;5.40;98.80
22321;DHT22;11328;53.928;18.522;2023-04-03T15:15:23;5.20;99.90
22321;DHT22;11328;53.928;18.522;2023-04-03T15:17:53;5.40;99.90
22321;DHT22;11328;53.928;18.522;2023-04-03T15:20:24;5.30;99.90
22321;DHT22;11328;53.928;18.522;2023-04-03T15:22:53;5.30;99.90
22321;DHT22;11328;53.928;18.522;2023-04-03T15:25:23;5.20;99.90
22321;DHT22;11328;53.928;18.522;2023-04-03T15:27:56;5.30;99.90
22321;DHT22;11328;53.928;18.522;2023-04-03T15:30:24;5.30;99.90
22321;DHT22;11328;53.928;18.522;2023-04-03T15:32:51;5.30;99.90
22321;DHT22;11328;53.928;18.522;2023-04-03T15:35:19;5.20;99.90
22321;DHT22;11328;53.928;18.522;2023-04-03T15:37:46;5.30;99.90
22321;DHT22;11328;53.928;18.522;2023-04-03T15:40:14;5.40;99.90
22321;DHT22;11328;53.928;18.522;2023-04-03T15:42:41;5.30;99.90
22321;DHT22;11328;53.928;18.522;2023-04-03T15:45:09;5.30;99.50
22321;DHT22;11328;53.928;18.522;2023-04-03T15:47:36;5.30;98.80
22321;DHT22;11328;53.928;18.522;2023-04-03T15:50:04;5.40;98.20
22321;DHT22;11328;53.928;18.522;2023-04-03T15:52:33;5.40;97.90
22321;DHT22;11328;53.928;18.522;2023-04-03T15:55:01;5.50;98.30
22321;DHT22;11328;53.928;18.522;2023-04-03T15:57:28;5.40;99.10
22321;DHT22;11328;53.928;18.522;2023-04-03T15:59:55;5.30;98.30
22321;DHT22;11328;53.928;18.522;2023-04-03T16:02:23;5.30;98.30
22321;DHT22;11328;53.928;18.522;2023-04-03T16:04:54;5.10;97.20
22321;DHT22;11328;53.928;18.522;2023-04-03T16:07:22;4.90;96.30
22321;DHT22;11328;53.928;18.522;2023-04-03T16:09:49;4.70;97.10
22321;DHT22;11328;53.928;18.522;2023-04-03T16:12:15;4.60;96.80
22321;DHT22;11328;53.928;18.522;2023-04-03T16:14:42;4.60;96.80
22321;DHT22;11328;53.928;18.522;2023-04-03T16:17:09;4.50;96.30
22321;DHT22;11328;53.928;18.522;2023-04-03T16:19:36;4.50;96.40
22321;DHT22;11328;53.928;18.522;2023-04-03T16:22:03;4.40;95.80
22321;DHT22;11328;53.928;18.522;2023-04-03T16:24:30;4.40;96.20
22321;DHT22;11328;53.928;18.522;2023-04-03T16:26:58;4.40;95.30
22321;DHT22;11328;53.928;18.522;2023-04-03T16:29:25;4.30;95.30
22321;DHT22;11328;53.928;18.522;2023-04-03T16:31:52;4.30;95.00
22321;DHT22;11328;53.928;18.522;2023-04-03T16:34:19;4.10;95.00
22321;DHT22;11328;53.928;18.522;2023-04-03T16:36:46;4.10;94.90
22321;DHT22;11328;53.928;18.522;2023-04-03T16:39:13;4.10;95.40
22321;DHT22;11328;53.928;18.522;2023-04-03T16:41:40;4.10;95.50
22321;DHT22;11328;53.928;18.522;2023-04-03T16:44:07;4.10;95.20
22321;DHT22;11328;53.928;18.522;2023-04-03T16:46:34;4.00;95.60
22321;DHT22;11328;53.928;18.522;2023-04-03T16:49:01;4.00;96.30
22321;DHT22;11328;53.928;18.522;2023-04-03T16:51:29;4.00;96.30
22321;DHT22;11328;53.928;18.522;2023-04-03T16:53:56;4.10;96.80
22321;DHT22;11328;53.928;18.522;2023-04-03T16:56:23;4.10;98.10
22321;DHT22;11328;53.928;18.522;2023-04-03T16:58:53;4.10;98.70
22321;DHT22;11328;53.928;18.522;2023-04-03T17:01:22;4.10;99.70
22321;DHT22;11328;53.928;18.522;2023-04-03T17:03:49;4.00;99.90
22321;DHT22;11328;53.928;18.522;2023-04-03T17:06:18;4.00;99.90
22321;DHT22;11328;53.928;18.522;2023-04-03T17:08:48;4.10;99.90
22321;DHT22;11328;53.928;18.522;2023-04-03T17:11:17;4.10;99.90
22321;DHT22;11328;53.928;18.522;2023-04-03T17:13:44;4.00;99.90
22321;DHT22;11328;53.928;18.522;2023-04-03T17:16:14;4.00;99.90
22321;DHT22;11328;53.928;18.522;2023-04-03T17:18:42;3.90;99.90
22321;DHT22;11328;53.928;18.522;2023-04-03T17:21:11;3.90;99.90
22321;DHT22;11328;53.928;18.522;2023-04-03T17:23:41;4.00;99.90
22321;DHT22;11328;53.928;18.522;2023-04-03T17:26:10;3.80;99.90
22321;DHT22;11328;53.928;18.522;2023-04-03T17:28:37;3.70;99.80
22321;DHT22;11328;53.928;18.522;2023-04-03T17:31:06;3.70;99.90
22321;DHT22;11328;53.928;18.522;2023-04-03T17:33:34;3.70;99.30
22321;DHT22;11328;53.928;18.522;2023-04-03T17:36:02;3.60;98.70
22321;DHT22;11328;53.928;18.522;2023-04-03T17:38:31;3.50;98.80